HomeShort term forecast

Short term forecast

Graphical weather forecast for the next 48 hours for Montreal:
Short term forecast
This weather forecast is automatically refreshed every 3 hours.

Hourly Experimental Forecast for the next 48 hours

Overall summary: Mostly cloudy starting this afternoon.

 Date & Hour   Temp   Feel   Baro   Hum   Speed & Bearing   Wind Gust   Precip.%   Precip.   Visibility   Cloud cover   Conditions 
 22/01/2019 - 06:00  -22.9°C  -32.6°C  1035.0 hPa  68%  15.0 km/h   30.8 km/h  0%  --  16.1km  0%  Clear 
 22/01/2019 - 07:00  -22.6°C  -32.5°C  1035.8 hPa  67%  15.7 km/h   31.5 km/h  0%  --  16.1km  0%  Clear 
 22/01/2019 - 08:00  -21.4°C  -31.5°C  1036.0 hPa  64%  17.4 km/h   33.0 km/h  1%  0.01 mm/h  16.1km  0%  Clear 
 22/01/2019 - 09:00  -20.4°C  -30.6°C  1037.0 hPa  65%  18.8 km/h   38.4 km/h  0%  --  16.1km  0%  Clear 
 22/01/2019 - 10:00  -19.0°C  -28.7°C  1037.2 hPa  63%  18.1 km/h   33.3 km/h  0%  --  16.1km  0%  Clear 
 22/01/2019 - 11:00  -17.6°C  -27.1°C  1036.9 hPa  63%  18.7 km/h   32.4 km/h  0%  --  16.1km  0%  Clear 
 22/01/2019 - 12:00  -16.2°C  -25.5°C  1036.7 hPa  63%  19.2 km/h   32.5 km/h  0%  --  16.1km  1%  Clear 
 22/01/2019 - 13:00  -15.0°C  -23.7°C  1036.4 hPa  64%  18.1 km/h   29.4 km/h  0%  --  16.1km  34%  Partly Cloudy 
 22/01/2019 - 14:00  -14.2°C  -22.4°C  1036.0 hPa  63%  16.8 km/h   28.8 km/h  0%  --  16.1km  45%  Partly Cloudy 
 22/01/2019 - 15:00  -13.6°C  -21.2°C  1035.7 hPa  62%  15.1 km/h   30.4 km/h  2%  0.01 mm/h  16.1km  60%  Mostly Cloudy 
 22/01/2019 - 16:00  -13.2°C  -19.9°C  1035.1 hPa  61%  12.4 km/h   27.9 km/h  0%  --  16.1km  72%  Mostly Cloudy 
 22/01/2019 - 17:00  -13.2°C  -19.1°C  1034.7 hPa  62%  10.0 km/h   19.5 km/h  0%  --  16.1km  79%  Mostly Cloudy 
 22/01/2019 - 18:00  -13.6°C  -18.6°C  1034.5 hPa  61%  7.9 km/h   12.8 km/h  2%  0.01 mm/h  16.1km  83%  Mostly Cloudy 
 22/01/2019 - 19:00  -14.6°C  -19.1°C  1034.1 hPa  64%  6.6 km/h   9.0 km/h  0%  --  16.1km  87%  Mostly Cloudy 
 22/01/2019 - 20:00  -13.9°C  -17.8°C  1033.2 hPa  66%  5.6 km/h   6.8 km/h  0%  --  16.1km  85%  Mostly Cloudy 
 22/01/2019 - 21:00  -13.1°C  -17.5°C  1032.2 hPa  66%  6.7 km/h   10.3 km/h  0%  --  16.1km  87%  Mostly Cloudy 
 22/01/2019 - 22:00  -12.4°C  -17.1°C  1031.2 hPa  67%  7.6 km/h   14.2 km/h  1%  0.01 mm/h  16.1km  90%  Mostly Cloudy 
 22/01/2019 - 23:00  -11.3°C  -16.1°C  1030.0 hPa  68%  8.2 km/h   18.0 km/h  1%  0.01 mm/h  16.1km  92%  Mostly Cloudy 
 23/01/2019 - 00:00  -9.9°C  -14.7°C  1028.7 hPa  69%  8.8 km/h   21.9 km/h  1%  0.01 mm/h  16.1km  96%  Overcast 
 23/01/2019 - 01:00  -8.7°C  -13.4°C  1027.4 hPa  69%  9.1 km/h   23.6 km/h  1%  0.01 mm/h  16.1km  99%  Overcast 
 23/01/2019 - 02:00  -7.9°C  -12.4°C  1026.1 hPa  68%  8.9 km/h   21.3 km/h  2%  0.02 mm/h  16.1km  99%  Overcast 
 23/01/2019 - 03:00  -7.4°C  -11.5°C  1024.8 hPa  68%  8.4 km/h   16.9 km/h  4%  0.03 mm/h  16.1km  100%  Overcast 
 23/01/2019 - 04:00  -7.0°C  -11.0°C  1023.6 hPa  69%  8.2 km/h   14.0 km/h  6%  0.04 mm/h  16.1km  100%  Overcast 
 23/01/2019 - 05:00  -6.7°C  -10.8°C  1022.7 hPa  70%  8.7 km/h   14.7 km/h  7%  0.07 mm/h  16.1km  100%  Overcast 
 23/01/2019 - 06:00  -6.4°C  -10.9°C  1022.0 hPa  72%  9.8 km/h   17.0 km/h  11%  0.20 mm/h  16.1km  100%  Possible Light Snow 
 23/01/2019 - 07:00  -5.4°C  -9.9°C  1021.3 hPa  71%  10.7 km/h   18.9 km/h  15%  0.34 mm/h  16.1km  100%  Snow 
 23/01/2019 - 08:00  -4.8°C  -9.3°C  1020.7 hPa  73%  11.1 km/h   19.3 km/h  20%  0.41 mm/h  13.7km  100%  Snow 
 23/01/2019 - 09:00  -4.4°C  -8.9°C  1020.1 hPa  77%  11.4 km/h   18.9 km/h  25%  0.53 mm/h  7.2km  100%  Snow 
 23/01/2019 - 10:00  -3.9°C  -8.4°C  1019.2 hPa  81%  11.7 km/h   18.6 km/h  30%  0.71 mm/h  2.8km  100%  Snow 
 23/01/2019 - 11:00  -3.5°C  -8.1°C  1018.0 hPa  85%  12.4 km/h   18.6 km/h  39%  0.85 mm/h  2.6km  100%  Snow 
 23/01/2019 - 12:00  -2.9°C  -7.6°C  1016.5 hPa  87%  13.1 km/h   19.0 km/h  40%  0.93 mm/h  4.5km  100%  Snow 
 23/01/2019 - 13:00  -2.4°C  -7.1°C  1015.0 hPa  89%  13.9 km/h   20.4 km/h  41%  0.98 mm/h  5.9km  100%  Snow 
 23/01/2019 - 14:00  -1.9°C  -6.6°C  1013.6 hPa  90%  14.4 km/h   23.7 km/h  42%  0.96 mm/h  5.8km  100%  Snow 
 23/01/2019 - 15:00  -1.3°C  -5.9°C  1012.2 hPa  89%  14.9 km/h   28.0 km/h  40%  0.90 mm/h  5.3km  100%  Snow 
 23/01/2019 - 16:00  -0.8°C  -5.5°C  1010.7 hPa  89%  15.8 km/h   31.4 km/h  39%  0.90 mm/h  4.4km  100%  Snow 
 23/01/2019 - 17:00  -0.2°C  -5.0°C  1009.1 hPa  89%  17.6 km/h   33.0 km/h  39%  0.99 mm/h  3.4km  100%  Snow 
 23/01/2019 - 18:00  0.6°C  -4.5°C  1007.5 hPa  87%  19.7 km/h   33.6 km/h  39%  1.16 mm/h  2.2km  100%  Snow 
 23/01/2019 - 19:00  1.3°C  -3.7°C  1006.0 hPa  86%  20.9 km/h   33.7 km/h  42%  1.28 mm/h  1.2km  100%  Snow 
 23/01/2019 - 20:00  2.1°C  -2.6°C  1004.6 hPa  85%  20.3 km/h   32.5 km/h  42%  1.28 mm/h  0.8km  100%  Light Rain 
 23/01/2019 - 21:00  2.3°C  -2.1°C  1003.2 hPa  89%  18.7 km/h   31.0 km/h  48%  1.31 mm/h  0.7km  100%  Light Rain 
 23/01/2019 - 22:00  2.8°C  -1.4°C  1002.2 hPa  90%  18.0 km/h   32.6 km/h  53%  1.32 mm/h  0.5km  100%  Light Rain 
 23/01/2019 - 23:00  3.8°C  -0.3°C  1001.5 hPa  87%  19.0 km/h   40.7 km/h  60%  1.16 mm/h  0.3km  100%  Light Rain 
 24/01/2019 - 00:00  4.0°C  -0.3°C  1001.0 hPa  89%  20.8 km/h   52.0 km/h  59%  0.90 mm/h  0.1km  100%  Light Rain 
 24/01/2019 - 01:00  4.1°C  -0.3°C  1000.7 hPa  91%  22.1 km/h   60.1 km/h  48%  0.65 mm/h  0.2km  100%  Foggy 
 24/01/2019 - 02:00  4.1°C  -0.3°C  1000.4 hPa  91%  22.5 km/h   61.7 km/h  37%  0.42 mm/h  2.9km  100%  Foggy 
 24/01/2019 - 03:00  3.8°C  -0.7°C  1000.2 hPa  91%  22.5 km/h   59.7 km/h  30%  0.27 mm/h  6.4km  99%  Overcast 
 24/01/2019 - 04:00  3.5°C  -1.1°C  1000.2 hPa  91%  22.1 km/h   56.7 km/h  28%  0.21 mm/h  10.0km  98%  Overcast 
 24/01/2019 - 05:00  3.0°C  -1.6°C  1000.3 hPa  90%  21.2 km/h   54.2 km/h  25%  0.16 mm/h  15.2km  95%  Overcast 
Test

 

Past weather and reports

Past weatherFind in this section the past weather conditions, weather archive, graphics, reports and statistics.

Current conditions

Current weather condition for MontrealAll you need to know about the current weather conditions for Montreal. Weather data is updated every 10 minutes.

Weather forecast

Current Montreal weatherSince 2004, celinium.com website has provided accurate weather forecast for Montreal's island.